Jaguaruna, Brazil
Current Conditions -  °F | °C
As of 10:00 AM on Monday 22 Dec 2014 (Local Time) from SBCM Reporting Station
Broken Clouds Broken Clouds  
Wind Chill: 75°   Ceiling: 10000
Heat Index: 75°   Visibility: 6mi
Dew Point: 66°   Wind: 14mph
Humidity: 73%   Direction: 210°SSW
Pressure: 29.88"   Gusts: NA
Location:  28.62°S, 49.03°W
Report Text: SBCM 221200Z 21012KT 9999 SCT018 BKN100 24/19 Q1012
Loading
Personal Weather Stations






























Interactive Weather Map New forecast layout! Learn more

10-Day Weather Forecast

Advertisements
Track Severe Weather on mobile